Terminal Aerodrome Forecast
Issued by NWS

Home | Current Version | Previous Version | Text Only | Print | Product List | Glossary Off
Versions: 1 2 3 4 5 6 7 8 9 10 11 12 13 14 15 16 17 18 19 20 21 22 23 24 25 26 27 28 29 30 31 32 33 34 35 36

000
FTUS43 KLOT 252240 AAC
TAFORD
TAF AMD
KORD 252240Z 2523/2624 22016G26KT P6SM VCTS BKN070CB
      TEMPO 2523/2524 4SM TSRA BKN040CB
     FM260100 25012G18KT P6SM SCT045
     FM260600 31008KT P6SM SCT025
     FM261000 03012KT P6SM SCT005 BKN008
     FM261600 04013KT P6SM BKN015=

USA.gov is the U.S. government's official web portal to all federal, state and local government web resources and services.